Snover, Michigan
Current Conditions -  °F | °C
As of 9:59 AM on Thursday 30 Oct 2014 (Local Time) from KBAX Reporting Station
Clear Clear  
Wind Chill: 36°   Ceiling: Unl
Heat Index: 41°   Visibility: 10mi
Dew Point: 36°   Wind: 7mph
Humidity: 83%   Direction: 270°W
Pressure: 30.13"   Gusts: NA
Location:  43.46°N, 82.97°W
Report Text: KBAX 301359Z AUTO 27006KT 10SM CLR 05/02 A3013 RMK AO2 T00490022
Loading
Personal Weather Stations






























Interactive Weather Map
Tropical Storm Tracking
New forecast layout! Learn more

10-Day Weather Forecast

Advertisements
Track Severe Weather on mobile